メインページ
METAR-TAF:

METAR-TAF

空港 :

ポワンタピートル国際空港

ポワンタピートル, グアドループ

緯度: 16-16N, 経度: 061-31W, 海抜: 11m

現時点の気象観測

当レポートは19分前の11:00(UTC)に作成
東/南東の風 6kt
気温 26°C
湿度 89%
気圧 1015 hPa
視程: 3800m

METAR: TFFR 141100Z AUTO 11006KT 3800 BR NSC 26/24 Q1015 BECMG 9999 NSW

時間: 07:19 (11:19 UTC)

予報

当レポートは7時間19分前の04:00(UTC)に作成
予報は14日の 06時(UTC)から 15日の 06時(UTC)まで有効
の風 8kt
視程10km以上
高度2000ftの雲は散在している
高度6000ftの千切れ雲あり
14日の 06時(UTC)から 14日の 09時(UTC)まで一時的に
視程: 2000m
高度1200ftの雲は散在している, 積乱雲.
高度1600ftの千切れ雲あり, 塔状積雲.
にわか雨
確率 30% :
14日の 06時(UTC)から 14日の 09時(UTC)まで一時的に
変向風 15kt、最大25ktの突風を伴う
視程: 1000m
高度1200ftの千切れ雲あり, 積乱雲.
激しい雷雨, 雨

TAF: TFFR 140400Z 1406/1506 10008KT 9999 SCT020 BKN060 TEMPO 1406/1409 2000 SHRA SCT012CB BKN016TCU PROB30 TEMPO 1406/1409 VRB15G25KT 1000 TSRA BKN012CB

4,000以上の空港の気象観測と天気予報(METAR報とTAF報)

利用可能な観測所は地図上に黄色い丸と赤い丸で示す。

丸の上にカーソルを重ねると観測所名を参照できる。

次にクリックすると気象観測と天気予報を参照できる。

マップの切り替え:黒色「×」印の緑ボタンをクリックして拡大、「-」印の緑ボタンをクリックして縮小、緑色の三角印をクリックして隣りの地図に切り替え


METAR-TAF: